sensor_id;sensor_type;location;lat;lon;timestamp;temperature;humidity
34644;DHT22;26931;43.498;-1.506;2023-04-01T00:02:18;16.20;88.20
34644;DHT22;26931;43.498;-1.506;2023-04-01T00:04:44;16.30;88.40
34644;DHT22;26931;43.498;-1.506;2023-04-01T00:07:10;16.20;88.40
34644;DHT22;26931;43.498;-1.506;2023-04-01T00:09:36;16.20;88.60
34644;DHT22;26931;43.498;-1.506;2023-04-01T00:12:03;16.20;88.70
34644;DHT22;26931;43.498;-1.506;2023-04-01T00:14:29;16.10;88.80
34644;DHT22;26931;43.498;-1.506;2023-04-01T00:16:55;16.10;88.90
34644;DHT22;26931;43.498;-1.506;2023-04-01T00:19:20;16.10;88.90
34644;DHT22;26931;43.498;-1.506;2023-04-01T00:21:46;16.20;88.80
34644;DHT22;26931;43.498;-1.506;2023-04-01T00:24:11;16.00;88.50
34644;DHT22;26931;43.498;-1.506;2023-04-01T00:26:37;16.10;88.40
34644;DHT22;26931;43.498;-1.506;2023-04-01T00:29:03;16.10;88.20
34644;DHT22;26931;43.498;-1.506;2023-04-01T00:31:28;16.20;88.30
34644;DHT22;26931;43.498;-1.506;2023-04-01T00:33:55;16.10;88.20
34644;DHT22;26931;43.498;-1.506;2023-04-01T00:36:21;16.00;88.40
34644;DHT22;26931;43.498;-1.506;2023-04-01T00:38:47;16.00;88.50
34644;DHT22;26931;43.498;-1.506;2023-04-01T00:41:14;16.30;88.80
34644;DHT22;26931;43.498;-1.506;2023-04-01T00:43:41;16.00;88.80
34644;DHT22;26931;43.498;-1.506;2023-04-01T00:46:07;16.10;88.90
34644;DHT22;26931;43.498;-1.506;2023-04-01T00:48:33;16.10;88.90
34644;DHT22;26931;43.498;-1.506;2023-04-01T00:53:29;16.20;89.30
34644;DHT22;26931;43.498;-1.506;2023-04-01T00:56:15;16.10;89.30
34644;DHT22;26931;43.498;-1.506;2023-04-01T00:58:43;16.10;89.40
34644;DHT22;26931;43.498;-1.506;2023-04-01T01:01:09;16.10;89.70
34644;DHT22;26931;43.498;-1.506;2023-04-01T01:03:35;16.10;89.80
34644;DHT22;26931;43.498;-1.506;2023-04-01T01:08:47;16.10;89.80
34644;DHT22;26931;43.498;-1.506;2023-04-01T01:11:18;16.20;89.80
34644;DHT22;26931;43.498;-1.506;2023-04-01T01:16:35;16.20;89.60
34644;DHT22;26931;43.498;-1.506;2023-04-01T01:21:55;16.20;89.20
34644;DHT22;26931;43.498;-1.506;2023-04-01T01:34:53;16.10;88.90
34644;DHT22;26931;43.498;-1.506;2023-04-01T01:37:22;16.00;89.00
34644;DHT22;26931;43.498;-1.506;2023-04-01T01:39:52;16.20;89.30
34644;DHT22;26931;43.498;-1.506;2023-04-01T01:42:19;16.00;89.20
34644;DHT22;26931;43.498;-1.506;2023-04-01T01:44:46;16.00;89.10
34644;DHT22;26931;43.498;-1.506;2023-04-01T01:47:14;16.00;89.20
34644;DHT22;26931;43.498;-1.506;2023-04-01T01:49:40;16.00;89.40
34644;DHT22;26931;43.498;-1.506;2023-04-01T01:52:07;16.00;89.50
34644;DHT22;26931;43.498;-1.506;2023-04-01T01:54:33;16.00;89.40
34644;DHT22;26931;43.498;-1.506;2023-04-01T01:57:02;16.00;89.30
34644;DHT22;26931;43.498;-1.506;2023-04-01T01:59:29;16.20;89.40
34644;DHT22;26931;43.498;-1.506;2023-04-01T02:01:55;16.00;89.20
34644;DHT22;26931;43.498;-1.506;2023-04-01T02:04:21;16.10;89.40
34644;DHT22;26931;43.498;-1.506;2023-04-01T02:06:50;16.00;89.60
34644;DHT22;26931;43.498;-1.506;2023-04-01T02:09:17;16.20;89.90
34644;DHT22;26931;43.498;-1.506;2023-04-01T02:11:46;16.10;89.70
34644;DHT22;26931;43.498;-1.506;2023-04-01T02:14:13;16.00;89.50
34644;DHT22;26931;43.498;-1.506;2023-04-01T02:16:46;16.20;89.50
34644;DHT22;26931;43.498;-1.506;2023-04-01T02:19:15;16.00;89.30
34644;DHT22;26931;43.498;-1.506;2023-04-01T02:21:42;16.00;89.20
34644;DHT22;26931;43.498;-1.506;2023-04-01T02:24:10;16.00;89.10
34644;DHT22;26931;43.498;-1.506;2023-04-01T02:26:37;16.00;88.90
34644;DHT22;26931;43.498;-1.506;2023-04-01T02:29:03;16.00;88.60
34644;DHT22;26931;43.498;-1.506;2023-04-01T02:31:30;16.00;88.60
34644;DHT22;26931;43.498;-1.506;2023-04-01T02:33:56;16.00;88.50
34644;DHT22;26931;43.498;-1.506;2023-04-01T02:36:22;15.90;88.60
34644;DHT22;26931;43.498;-1.506;2023-04-01T02:38:48;16.00;88.60
34644;DHT22;26931;43.498;-1.506;2023-04-01T02:41:15;16.00;88.70
34644;DHT22;26931;43.498;-1.506;2023-04-01T02:43:41;15.90;88.40
34644;DHT22;26931;43.498;-1.506;2023-04-01T02:46:07;15.90;88.40
34644;DHT22;26931;43.498;-1.506;2023-04-01T02:48:32;16.00;88.40
34644;DHT22;26931;43.498;-1.506;2023-04-01T02:50:58;16.10;88.50
34644;DHT22;26931;43.498;-1.506;2023-04-01T02:53:24;15.90;88.30
34644;DHT22;26931;43.498;-1.506;2023-04-01T02:55:50;15.90;88.30
34644;DHT22;26931;43.498;-1.506;2023-04-01T02:58:17;15.90;88.40
34644;DHT22;26931;43.498;-1.506;2023-04-01T03:00:43;15.90;88.50
34644;DHT22;26931;43.498;-1.506;2023-04-01T03:03:09;15.90;88.40
34644;DHT22;26931;43.498;-1.506;2023-04-01T03:05:35;16.00;88.50
34644;DHT22;26931;43.498;-1.506;2023-04-01T03:08:01;15.90;88.40
34644;DHT22;26931;43.498;-1.506;2023-04-01T03:10:27;15.70;88.20
34644;DHT22;26931;43.498;-1.506;2023-04-01T03:12:52;15.90;88.30
34644;DHT22;26931;43.498;-1.506;2023-04-01T03:15:18;15.90;88.00
34644;DHT22;26931;43.498;-1.506;2023-04-01T03:17:44;15.90;87.80
34644;DHT22;26931;43.498;-1.506;2023-04-01T03:20:12;16.00;88.00
34644;DHT22;26931;43.498;-1.506;2023-04-01T03:22:37;15.80;87.80
34644;DHT22;26931;43.498;-1.506;2023-04-01T03:25:04;15.90;87.80
34644;DHT22;26931;43.498;-1.506;2023-04-01T03:27:30;15.90;87.70
34644;DHT22;26931;43.498;-1.506;2023-04-01T03:29:56;15.90;87.90
34644;DHT22;26931;43.498;-1.506;2023-04-01T03:32:22;15.90;88.00
34644;DHT22;26931;43.498;-1.506;2023-04-01T03:34:47;15.80;88.00
34644;DHT22;26931;43.498;-1.506;2023-04-01T03:37:13;15.90;88.00
34644;DHT22;26931;43.498;-1.506;2023-04-01T03:39:39;15.90;88.00
34644;DHT22;26931;43.498;-1.506;2023-04-01T03:42:05;15.90;87.90
34644;DHT22;26931;43.498;-1.506;2023-04-01T03:44:35;15.90;87.90
34644;DHT22;26931;43.498;-1.506;2023-04-01T03:47:00;16.00;88.10
34644;DHT22;26931;43.498;-1.506;2023-04-01T03:49:26;15.80;87.90
34644;DHT22;26931;43.498;-1.506;2023-04-01T03:51:52;15.90;88.00
34644;DHT22;26931;43.498;-1.506;2023-04-01T03:54:18;15.90;88.10
34644;DHT22;26931;43.498;-1.506;2023-04-01T03:56:45;15.80;88.10
34644;DHT22;26931;43.498;-1.506;2023-04-01T03:59:11;16.00;88.30
34644;DHT22;26931;43.498;-1.506;2023-04-01T04:01:37;15.80;88.20
34644;DHT22;26931;43.498;-1.506;2023-04-01T04:04:03;15.80;88.20
34644;DHT22;26931;43.498;-1.506;2023-04-01T04:06:29;15.70;88.20
34644;DHT22;26931;43.498;-1.506;2023-04-01T04:08:55;15.80;88.50
34644;DHT22;26931;43.498;-1.506;2023-04-01T04:11:22;15.80;88.70
34644;DHT22;26931;43.498;-1.506;2023-04-01T04:13:47;15.80;88.90
34644;DHT22;26931;43.498;-1.506;2023-04-01T04:16:13;15.80;89.00
34644;DHT22;26931;43.498;-1.506;2023-04-01T04:18:39;15.80;89.00
34644;DHT22;26931;43.498;-1.506;2023-04-01T04:21:05;15.80;89.10
34644;DHT22;26931;43.498;-1.506;2023-04-01T04:23:31;15.80;89.10
34644;DHT22;26931;43.498;-1.506;2023-04-01T04:25:59;15.80;89.20
34644;DHT22;26931;43.498;-1.506;2023-04-01T04:28:26;15.70;89.10
34644;DHT22;26931;43.498;-1.506;2023-04-01T04:30:53;15.80;89.10
34644;DHT22;26931;43.498;-1.506;2023-04-01T04:33:19;15.70;89.80
34644;DHT22;26931;43.498;-1.506;2023-04-01T04:35:45;15.70;88.90
34644;DHT22;26931;43.498;-1.506;2023-04-01T04:38:10;15.70;88.80
34644;DHT22;26931;43.498;-1.506;2023-04-01T04:40:37;15.60;88.80
34644;DHT22;26931;43.498;-1.506;2023-04-01T04:43:03;15.70;88.90
34644;DHT22;26931;43.498;-1.506;2023-04-01T04:45:29;15.80;89.10
34644;DHT22;26931;43.498;-1.506;2023-04-01T04:47:55;15.70;89.20
34644;DHT22;26931;43.498;-1.506;2023-04-01T04:50:22;15.90;89.30
34644;DHT22;26931;43.498;-1.506;2023-04-01T04:52:48;15.80;89.30
34644;DHT22;26931;43.498;-1.506;2023-04-01T04:55:13;15.70;89.20
34644;DHT22;26931;43.498;-1.506;2023-04-01T04:57:40;15.70;89.30
34644;DHT22;26931;43.498;-1.506;2023-04-01T05:00:06;15.80;89.40
34644;DHT22;26931;43.498;-1.506;2023-04-01T05:02:33;15.80;89.50
34644;DHT22;26931;43.498;-1.506;2023-04-01T05:04:58;15.90;89.80
34644;DHT22;26931;43.498;-1.506;2023-04-01T05:07:24;15.80;89.90
34644;DHT22;26931;43.498;-1.506;2023-04-01T05:09:50;15.90;90.00
34644;DHT22;26931;43.498;-1.506;2023-04-01T05:12:16;15.80;90.10
34644;DHT22;26931;43.498;-1.506;2023-04-01T05:14:42;15.80;90.20
34644;DHT22;26931;43.498;-1.506;2023-04-01T05:17:08;15.80;90.20
34644;DHT22;26931;43.498;-1.506;2023-04-01T05:19:35;15.80;90.20
34644;DHT22;26931;43.498;-1.506;2023-04-01T05:22:00;15.70;90.10
34644;DHT22;26931;43.498;-1.506;2023-04-01T05:24:26;15.80;90.10
34644;DHT22;26931;43.498;-1.506;2023-04-01T05:26:52;15.80;90.10
34644;DHT22;26931;43.498;-1.506;2023-04-01T05:29:18;15.80;90.20
34644;DHT22;26931;43.498;-1.506;2023-04-01T05:31:43;15.80;90.30
34644;DHT22;26931;43.498;-1.506;2023-04-01T05:34:09;15.80;90.30
34644;DHT22;26931;43.498;-1.506;2023-04-01T05:36:35;15.70;90.30
34644;DHT22;26931;43.498;-1.506;2023-04-01T05:39:02;15.80;90.30
34644;DHT22;26931;43.498;-1.506;2023-04-01T05:41:28;15.80;90.40
34644;DHT22;26931;43.498;-1.506;2023-04-01T05:43:54;15.70;90.40
34644;DHT22;26931;43.498;-1.506;2023-04-01T05:46:20;16.00;90.50
34644;DHT22;26931;43.498;-1.506;2023-04-01T05:48:46;15.80;90.50
34644;DHT22;26931;43.498;-1.506;2023-04-01T05:51:13;15.90;90.70
34644;DHT22;26931;43.498;-1.506;2023-04-01T05:53:39;15.80;90.50
34644;DHT22;26931;43.498;-1.506;2023-04-01T05:56:05;15.80;90.50
34644;DHT22;26931;43.498;-1.506;2023-04-01T05:58:32;15.80;90.60
34644;DHT22;26931;43.498;-1.506;2023-04-01T06:01:05;15.80;90.60
34644;DHT22;26931;43.498;-1.506;2023-04-01T06:03:32;15.80;90.70
34644;DHT22;26931;43.498;-1.506;2023-04-01T06:05:58;15.90;90.70
34644;DHT22;26931;43.498;-1.506;2023-04-01T06:08:24;15.80;90.70
34644;DHT22;26931;43.498;-1.506;2023-04-01T06:13:48;15.80;90.80
34644;DHT22;26931;43.498;-1.506;2023-04-01T06:16:32;15.80;90.80
34644;DHT22;26931;43.498;-1.506;2023-04-01T06:19:04;15.80;90.80
34644;DHT22;26931;43.498;-1.506;2023-04-01T06:21:34;15.80;90.70
34644;DHT22;26931;43.498;-1.506;2023-04-01T06:26:30;15.80;90.80
34644;DHT22;26931;43.498;-1.506;2023-04-01T06:29:19;15.80;90.80
34644;DHT22;26931;43.498;-1.506;2023-04-01T06:32:06;16.00;90.80
34644;DHT22;26931;43.498;-1.506;2023-04-01T06:50:07;15.90;90.30
34644;DHT22;26931;43.498;-1.506;2023-04-01T06:52:39;15.90;90.20
34644;DHT22;26931;43.498;-1.506;2023-04-01T06:57:42;16.00;90.30
34644;DHT22;26931;43.498;-1.506;2023-04-01T07:02:48;15.90;90.30
34644;DHT22;26931;43.498;-1.506;2023-04-01T07:05:19;16.00;90.40
34644;DHT22;26931;43.498;-1.506;2023-04-01T07:07:46;16.00;90.40
34644;DHT22;26931;43.498;-1.506;2023-04-01T07:10:17;16.30;90.40
34644;DHT22;26931;43.498;-1.506;2023-04-01T07:12:52;16.00;90.40
34644;DHT22;26931;43.498;-1.506;2023-04-01T07:15:38;16.10;90.40
34644;DHT22;26931;43.498;-1.506;2023-04-01T07:18:17;16.10;90.40
34644;DHT22;26931;43.498;-1.506;2023-04-01T07:20:44;16.10;90.40
34644;DHT22;26931;43.498;-1.506;2023-04-01T07:23:32;16.00;90.50
34644;DHT22;26931;43.498;-1.506;2023-04-01T07:26:01;16.10;90.50
34644;DHT22;26931;43.498;-1.506;2023-04-01T07:28:30;16.10;90.60
34644;DHT22;26931;43.498;-1.506;2023-04-01T07:31:06;16.20;90.60
34644;DHT22;26931;43.498;-1.506;2023-04-01T07:36:23;16.20;90.70
34644;DHT22;26931;43.498;-1.506;2023-04-01T07:46:38;15.90;89.60
34644;DHT22;26931;43.498;-1.506;2023-04-01T07:54:28;15.80;89.20
34644;DHT22;26931;43.498;-1.506;2023-04-01T07:57:02;15.70;89.20
34644;DHT22;26931;43.498;-1.506;2023-04-01T07:59:34;15.70;89.20
34644;DHT22;26931;43.498;-1.506;2023-04-01T08:04:38;15.80;89.40
34644;DHT22;26931;43.498;-1.506;2023-04-01T08:12:13;15.90;88.80
34644;DHT22;26931;43.498;-1.506;2023-04-01T08:20:03;15.90;88.40
34644;DHT22;26931;43.498;-1.506;2023-04-01T08:22:36;16.10;88.30
34644;DHT22;26931;43.498;-1.506;2023-04-01T08:25:04;16.00;88.10
34644;DHT22;26931;43.498;-1.506;2023-04-01T08:27:39;16.10;88.00
34644;DHT22;26931;43.498;-1.506;2023-04-01T08:30:26;16.20;88.00
34644;DHT22;26931;43.498;-1.506;2023-04-01T08:32:58;16.30;87.90
34644;DHT22;26931;43.498;-1.506;2023-04-01T08:35:29;16.30;87.80
34644;DHT22;26931;43.498;-1.506;2023-04-01T08:37:58;16.50;87.60
34644;DHT22;26931;43.498;-1.506;2023-04-01T08:43:01;16.50;86.50
34644;DHT22;26931;43.498;-1.506;2023-04-01T08:45:41;16.50;86.10
34644;DHT22;26931;43.498;-1.506;2023-04-01T08:50:54;16.70;85.00
34644;DHT22;26931;43.498;-1.506;2023-04-01T08:56:06;16.80;84.40
34644;DHT22;26931;43.498;-1.506;2023-04-01T09:11:32;17.00;81.90
34644;DHT22;26931;43.498;-1.506;2023-04-01T09:27:29;17.00;81.30
34644;DHT22;26931;43.498;-1.506;2023-04-01T09:35:24;17.00;80.70
34644;DHT22;26931;43.498;-1.506;2023-04-01T09:38:04;17.00;80.70
34644;DHT22;26931;43.498;-1.506;2023-04-01T09:40:49;17.00;80.70
34644;DHT22;26931;43.498;-1.506;2023-04-01T09:43:40;17.00;80.60
34644;DHT22;26931;43.498;-1.506;2023-04-01T09:46:19;17.00;80.50
34644;DHT22;26931;43.498;-1.506;2023-04-01T09:48:53;16.90;80.60
34644;DHT22;26931;43.498;-1.506;2023-04-01T09:51:38;16.90;80.70
34644;DHT22;26931;43.498;-1.506;2023-04-01T09:54:22;16.80;80.80
34644;DHT22;26931;43.498;-1.506;2023-04-01T09:57:03;16.80;80.80
34644;DHT22;26931;43.498;-1.506;2023-04-01T10:02:08;16.70;81.00
34644;DHT22;26931;43.498;-1.506;2023-04-01T10:07:22;16.80;81.40
34644;DHT22;26931;43.498;-1.506;2023-04-01T10:12:49;16.60;81.50
34644;DHT22;26931;43.498;-1.506;2023-04-01T10:33:50;15.60;85.20
34644;DHT22;26931;43.498;-1.506;2023-04-01T10:36:46;15.50;85.70
34644;DHT22;26931;43.498;-1.506;2023-04-01T10:39:28;15.40;86.40
34644;DHT22;26931;43.498;-1.506;2023-04-01T10:53:14;15.20;89.00
34644;DHT22;26931;43.498;-1.506;2023-04-01T11:03:33;15.00;90.00
34644;DHT22;26931;43.498;-1.506;2023-04-01T11:06:25;15.00;90.20
34644;DHT22;26931;43.498;-1.506;2023-04-01T11:14:07;15.10;90.50
34644;DHT22;26931;43.498;-1.506;2023-04-01T11:19:50;15.10;90.50
34644;DHT22;26931;43.498;-1.506;2023-04-01T11:25:02;15.20;90.60
34644;DHT22;26931;43.498;-1.506;2023-04-01T11:27:48;15.20;90.60
34644;DHT22;26931;43.498;-1.506;2023-04-01T11:30:23;15.20;90.40
34644;DHT22;26931;43.498;-1.506;2023-04-01T11:56:19;15.10;88.80
34644;DHT22;26931;43.498;-1.506;2023-04-01T12:01:36;15.10;87.60
34644;DHT22;26931;43.498;-1.506;2023-04-01T12:04:05;15.10;87.30
34644;DHT22;26931;43.498;-1.506;2023-04-01T12:09:26;15.10;87.00
34644;DHT22;26931;43.498;-1.506;2023-04-01T12:17:13;15.20;87.70
34644;DHT22;26931;43.498;-1.506;2023-04-01T12:19:49;15.20;87.90
34644;DHT22;26931;43.498;-1.506;2023-04-01T12:22:22;15.20;88.10
34644;DHT22;26931;43.498;-1.506;2023-04-01T12:24:51;15.30;88.00
34644;DHT22;26931;43.498;-1.506;2023-04-01T12:30:06;15.30;87.90
34644;DHT22;26931;43.498;-1.506;2023-04-01T12:32:45;15.30;87.80
34644;DHT22;26931;43.498;-1.506;2023-04-01T12:37:50;15.40;87.50
34644;DHT22;26931;43.498;-1.506;2023-04-01T12:40:20;15.30;87.30
34644;DHT22;26931;43.498;-1.506;2023-04-01T12:43:05;15.10;87.50
34644;DHT22;26931;43.498;-1.506;2023-04-01T12:45:54;15.10;87.90
34644;DHT22;26931;43.498;-1.506;2023-04-01T12:55:48;14.80;88.80
34644;DHT22;26931;43.498;-1.506;2023-04-01T12:58:35;14.70;88.70
34644;DHT22;26931;43.498;-1.506;2023-04-01T13:19:21;14.30;90.10
34644;DHT22;26931;43.498;-1.506;2023-04-01T13:21:55;14.30;90.10
34644;DHT22;26931;43.498;-1.506;2023-04-01T13:27:08;14.40;90.30
34644;DHT22;26931;43.498;-1.506;2023-04-01T13:29:38;14.50;90.40
34644;DHT22;26931;43.498;-1.506;2023-04-01T13:54:59;14.70;90.10
34644;DHT22;26931;43.498;-1.506;2023-04-01T14:00:25;14.60;90.30
34644;DHT22;26931;43.498;-1.506;2023-04-01T14:18:26;14.60;90.50
34644;DHT22;26931;43.498;-1.506;2023-04-01T14:26:13;14.10;90.00
34644;DHT22;26931;43.498;-1.506;2023-04-01T14:36:59;13.80;90.30
34644;DHT22;26931;43.498;-1.506;2023-04-01T14:50:05;13.80;91.50
34644;DHT22;26931;43.498;-1.506;2023-04-01T14:52:32;13.90;91.70
34644;DHT22;26931;43.498;-1.506;2023-04-01T14:55:02;13.90;91.80
34644;DHT22;26931;43.498;-1.506;2023-04-01T14:57:36;13.90;91.80
34644;DHT22;26931;43.498;-1.506;2023-04-01T15:05:16;13.90;91.50
34644;DHT22;26931;43.498;-1.506;2023-04-01T15:08:03;13.90;91.40
34644;DHT22;26931;43.498;-1.506;2023-04-01T15:23:04;13.60;91.60
34644;DHT22;26931;43.498;-1.506;2023-04-01T15:28:04;13.60;91.50
34644;DHT22;26931;43.498;-1.506;2023-04-01T15:36:01;13.60;91.70
34644;DHT22;26931;43.498;-1.506;2023-04-01T15:38:25;13.60;91.70
34644;DHT22;26931;43.498;-1.506;2023-04-01T15:41:11;13.70;91.90
34644;DHT22;26931;43.498;-1.506;2023-04-01T15:43:49;13.70;91.90
34644;DHT22;26931;43.498;-1.506;2023-04-01T15:54:05;13.80;91.90
34644;DHT22;26931;43.498;-1.506;2023-04-01T15:59:09;13.90;91.80
34644;DHT22;26931;43.498;-1.506;2023-04-01T16:07:27;13.90;91.80
34644;DHT22;26931;43.498;-1.506;2023-04-01T16:12:37;14.10;91.80
34644;DHT22;26931;43.498;-1.506;2023-04-01T16:25:59;14.30;91.60
34644;DHT22;26931;43.498;-1.506;2023-04-01T16:29:03;14.30;91.50
34644;DHT22;26931;43.498;-1.506;2023-04-01T16:34:06;14.30;91.60
34644;DHT22;26931;43.498;-1.506;2023-04-01T16:36:37;14.30;91.60
34644;DHT22;26931;43.498;-1.506;2023-04-01T16:39:18;14.50;91.40
34644;DHT22;26931;43.498;-1.506;2023-04-01T16:44:26;14.40;90.70
34644;DHT22;26931;43.498;-1.506;2023-04-01T16:46:56;14.40;90.40
34644;DHT22;26931;43.498;-1.506;2023-04-01T16:49:36;14.50;90.10
34644;DHT22;26931;43.498;-1.506;2023-04-01T16:57:21;14.60;88.60
34644;DHT22;26931;43.498;-1.506;2023-04-01T16:59:57;14.60;87.90
34644;DHT22;26931;43.498;-1.506;2023-04-01T17:02:34;14.60;87.40
34644;DHT22;26931;43.498;-1.506;2023-04-01T17:05:13;14.70;87.10
34644;DHT22;26931;43.498;-1.506;2023-04-01T17:08:00;14.70;86.40
34644;DHT22;26931;43.498;-1.506;2023-04-01T17:10:47;14.70;86.10
34644;DHT22;26931;43.498;-1.506;2023-04-01T17:16:04;14.70;85.00
34644;DHT22;26931;43.498;-1.506;2023-04-01T17:23:38;14.90;84.30
34644;DHT22;26931;43.498;-1.506;2023-04-01T17:26:20;14.70;84.20
34644;DHT22;26931;43.498;-1.506;2023-04-01T17:28:51;14.70;84.20
34644;DHT22;26931;43.498;-1.506;2023-04-01T17:31:36;14.80;84.50
34644;DHT22;26931;43.498;-1.506;2023-04-01T17:34:10;14.70;84.50
34644;DHT22;26931;43.498;-1.506;2023-04-01T17:36:45;14.80;84.90
34644;DHT22;26931;43.498;-1.506;2023-04-01T17:44:37;15.00;85.40
34644;DHT22;26931;43.498;-1.506;2023-04-01T17:49:42;15.00;85.10
34644;DHT22;26931;43.498;-1.506;2023-04-01T18:21:29;14.70;83.50
34644;DHT22;26931;43.498;-1.506;2023-04-01T18:26:33;14.60;83.30
34644;DHT22;26931;43.498;-1.506;2023-04-01T18:31:32;14.70;83.30
34644;DHT22;26931;43.498;-1.506;2023-04-01T18:34:07;14.60;83.10
34644;DHT22;26931;43.498;-1.506;2023-04-01T18:39:11;14.60;82.70
34644;DHT22;26931;43.498;-1.506;2023-04-01T18:49:33;14.60;82.10
34644;DHT22;26931;43.498;-1.506;2023-04-01T18:54:40;14.50;81.90
34644;DHT22;26931;43.498;-1.506;2023-04-01T18:57:09;14.60;81.80
34644;DHT22;26931;43.498;-1.506;2023-04-01T18:59:49;14.60;81.90
34644;DHT22;26931;43.498;-1.506;2023-04-01T19:02:33;14.60;82.10
34644;DHT22;26931;43.498;-1.506;2023-04-01T19:05:23;14.60;82.30
34644;DHT22;26931;43.498;-1.506;2023-04-01T19:07:53;14.60;82.50
34644;DHT22;26931;43.498;-1.506;2023-04-01T19:13:07;14.60;82.30
34644;DHT22;26931;43.498;-1.506;2023-04-01T19:18:13;14.70;82.30
34644;DHT22;26931;43.498;-1.506;2023-04-01T19:20:51;14.60;82.20
34644;DHT22;26931;43.498;-1.506;2023-04-01T19:26:11;14.60;82.20
34644;DHT22;26931;43.498;-1.506;2023-04-01T19:28:43;14.50;82.30
34644;DHT22;26931;43.498;-1.506;2023-04-01T19:38:55;14.40;83.80
34644;DHT22;26931;43.498;-1.506;2023-04-01T19:44:20;14.10;84.70
34644;DHT22;26931;43.498;-1.506;2023-04-01T19:46:55;14.00;85.30
34644;DHT22;26931;43.498;-1.506;2023-04-01T19:49:27;13.90;86.20
34644;DHT22;26931;43.498;-1.506;2023-04-01T19:52:01;14.10;87.00
34644;DHT22;26931;43.498;-1.506;2023-04-01T20:05:24;13.70;88.60
34644;DHT22;26931;43.498;-1.506;2023-04-01T20:07:52;13.70;89.10
34644;DHT22;26931;43.498;-1.506;2023-04-01T20:10:20;13.70;89.50
34644;DHT22;26931;43.498;-1.506;2023-04-01T20:12:51;13.70;89.60
34644;DHT22;26931;43.498;-1.506;2023-04-01T20:17:46;13.80;90.00
34644;DHT22;26931;43.498;-1.506;2023-04-01T20:20:23;13.80;90.00
34644;DHT22;26931;43.498;-1.506;2023-04-01T20:27:45;13.90;90.10
34644;DHT22;26931;43.498;-1.506;2023-04-01T20:30:34;13.90;90.00
34644;DHT22;26931;43.498;-1.506;2023-04-01T20:43:42;14.00;89.80
34644;DHT22;26931;43.498;-1.506;2023-04-01T20:46:19;14.00;89.80
34644;DHT22;26931;43.498;-1.506;2023-04-01T20:51:22;14.00;89.40
34644;DHT22;26931;43.498;-1.506;2023-04-01T20:53:57;14.10;90.00
34644;DHT22;26931;43.498;-1.506;2023-04-01T20:56:29;14.10;89.20
34644;DHT22;26931;43.498;-1.506;2023-04-01T21:06:52;14.10;89.00
34644;DHT22;26931;43.498;-1.506;2023-04-01T21:12:26;14.20;89.10
34644;DHT22;26931;43.498;-1.506;2023-04-01T21:17:38;14.40;88.40
34644;DHT22;26931;43.498;-1.506;2023-04-01T21:22:45;14.10;88.20
34644;DHT22;26931;43.498;-1.506;2023-04-01T21:25:30;14.20;88.50
34644;DHT22;26931;43.498;-1.506;2023-04-01T21:28:06;14.00;88.60
34644;DHT22;26931;43.498;-1.506;2023-04-01T21:38:28;14.00;88.50
34644;DHT22;26931;43.498;-1.506;2023-04-01T21:43:30;14.00;88.60
34644;DHT22;26931;43.498;-1.506;2023-04-01T21:46:07;13.90;88.40
34644;DHT22;26931;43.498;-1.506;2023-04-01T22:02:02;13.80;89.60
34644;DHT22;26931;43.498;-1.506;2023-04-01T22:07:15;13.70;90.10
34644;DHT22;26931;43.498;-1.506;2023-04-01T22:12:12;13.70;90.10
34644;DHT22;26931;43.498;-1.506;2023-04-01T22:22:17;13.70;90.20
34644;DHT22;26931;43.498;-1.506;2023-04-01T22:24:49;13.80;90.30
34644;DHT22;26931;43.498;-1.506;2023-04-01T22:30:26;13.80;90.40
34644;DHT22;26931;43.498;-1.506;2023-04-01T22:32:48;13.90;90.50
34644;DHT22;26931;43.498;-1.506;2023-04-01T22:40:28;13.80;91.10
34644;DHT22;26931;43.498;-1.506;2023-04-01T22:43:11;13.80;91.40
34644;DHT22;26931;43.498;-1.506;2023-04-01T22:45:47;13.80;91.50
34644;DHT22;26931;43.498;-1.506;2023-04-01T22:55:59;13.80;92.10
34644;DHT22;26931;43.498;-1.506;2023-04-01T22:58:33;13.80;92.20
34644;DHT22;26931;43.498;-1.506;2023-04-01T23:01:01;13.70;92.30
34644;DHT22;26931;43.498;-1.506;2023-04-01T23:03:31;13.80;92.40
34644;DHT22;26931;43.498;-1.506;2023-04-01T23:05:58;13.80;92.40
34644;DHT22;26931;43.498;-1.506;2023-04-01T23:11:03;13.70;92.50
34644;DHT22;26931;43.498;-1.506;2023-04-01T23:13:32;13.70;92.50
34644;DHT22;26931;43.498;-1.506;2023-04-01T23:16:00;13.90;92.60
34644;DHT22;26931;43.498;-1.506;2023-04-01T23:26:15;13.90;92.90
34644;DHT22;26931;43.498;-1.506;2023-04-01T23:31:27;13.90;93.20
34644;DHT22;26931;43.498;-1.506;2023-04-01T23:33:55;14.10;93.30
34644;DHT22;26931;43.498;-1.506;2023-04-01T23:36:21;14.00;93.30
34644;DHT22;26931;43.498;-1.506;2023-04-01T23:38:48;13.90;93.20
34644;DHT22;26931;43.498;-1.506;2023-04-01T23:41:18;14.00;93.10
34644;DHT22;26931;43.498;-1.506;2023-04-01T23:43:45;14.00;93.00
34644;DHT22;26931;43.498;-1.506;2023-04-01T23:46:14;13.90;92.80
34644;DHT22;26931;43.498;-1.506;2023-04-01T23:48:42;13.90;92.70
34644;DHT22;26931;43.498;-1.506;2023-04-01T23:51:20;14.00;92.70
34644;DHT22;26931;43.498;-1.506;2023-04-01T23:53:46;14.00;92.70
34644;DHT22;26931;43.498;-1.506;2023-04-01T23:56:15;14.00;92.60
34644;DHT22;26931;43.498;-1.506;2023-04-01T23:58:49;14.00;92.50
